Flipper III — FGD2658 — position and weather

sailwx.info

Track history (hours):
 
Tides and Currents Weather Stations Pressure Air Temp Water Temp Dewpoint Dewpoint Depression Visibility Wind Speed Wind Dir Waves Ship Positions

Flipper III

Last reported at 2017-Nov-24 04:03 UTC. Time now 2017-Nov-24 09:37 UTC.
Position N 48°11' W 005°15'.

Length 23 m.

Type: Fishing. MMSI: 227320660.

Date/timePositionNaut miles runAvg speedWind from/ knotsBaromVisibWave heightAir tempDewpointWater temp
2017-Nov-24 04:03N 48°11' W 005°15'1 8.5
2017-Nov-24 03:59N 48°11' W 005°14'5 8.6
2017-Nov-24 03:27N 48°12' W 005°07'3 7.1
2017-Nov-24 03:00N 48°13' W 005°03'4 7.5
2017-Nov-24 02:27N 48°15' W 004°57'4 8.8
2017-Nov-24 01:58N 48°17' W 004°52'4 8.5
2017-Nov-24 01:28N 48°20' W 004°48'2 0.1
2017-Nov-23 08:57N 48°22' W 004°47'  
2017-Nov-17 16:17N 48°22' W 004°47'0 0.1
2017-Nov-17 15:45N 48°22' W 004°47'0 0.8
2017-Nov-17 15:25N 48°21' W 004°47'3 6.9
2017-Nov-17 14:58N 48°20' W 004°51'5 9.3
2017-Nov-17 14:29N 48°18' W 004°57'5 9.2
2017-Nov-17 13:58N 48°17' W 005°04'5 9.3
2017-Nov-17 13:29N 48°16' W 005°11'5 9.2
2017-Nov-17 12:53N 48°15' W 005°19'6 0.7
2017-Nov-17 03:29N 48°19' W 005°13'4 8.7
2017-Nov-17 03:00N 48°19' W 005°06'5 9.0
2017-Nov-17 02:27N 48°19' W 004°59'4 8.8
2017-Nov-17 02:00N 48°20' W 004°53'4 0.4
2017-Nov-16 15:32N 48°22' W 004°47'0 0.1
2017-Nov-16 15:04N 48°22' W 004°47'0 0.0
2017-Nov-16 14:40N 48°22' W 004°47'1 3.5
2017-Nov-16 14:24N 48°21' W 004°47'3 8.4
2017-Nov-16 14:00N 48°18' W 004°44'2 3.9
2017-Nov-16 13:28N 48°18' W 004°41'0 0.3
2017-Nov-16 12:59N 48°18' W 004°41'0 0.7
2017-Nov-16 12:30N 48°17' W 004°41'0 0.3
2017-Nov-16 11:58N 48°17' W 004°41'0 0.7
2017-Nov-16 11:30N 48°17' W 004°41'0 0.3
2017-Nov-16 11:00N 48°17' W 004°41'0 1.0
2017-Nov-16 10:30N 48°17' W 004°40'0 0.7
2017-Nov-16 09:58N 48°17' W 004°41'0 0.4
2017-Nov-16 09:30N 48°17' W 004°41'0 0.5
2017-Nov-16 08:59N 48°17' W 004°41'0 0.4
2017-Nov-16 08:30N 48°17' W 004°41'0 0.5
2017-Nov-16 08:00N 48°17' W 004°41'0 0.9
2017-Nov-16 07:30N 48°18' W 004°41'1 1.5
2017-Nov-16 06:58N 48°17' W 004°42'0 0.7
2017-Nov-16 06:30N 48°17' W 004°41'0 0.7
2017-Nov-16 06:00N 48°17' W 004°41'4 7.4
2017-Nov-16 05:30N 48°19' W 004°46'2 0.2
2017-Nov-15 14:44N 48°22' W 004°47'2 6.6
2017-Nov-15 14:26N 48°20' W 004°49'4 8.4
2017-Nov-15 13:58N 48°19' W 004°55'5 8.5
2017-Nov-15 13:25N 48°19' W 005°02'8 9.0
2017-Nov-15 12:33N 48°16' W 005°13'1 9.1
2017-Nov-15 12:29N 48°16' W 005°13'3 0.3
2017-Nov-15 03:43N 48°18' W 005°16'4 8.8
2017-Nov-15 03:19N 48°18' W 005°11'3 8.8
2017-Nov-15 02:59N 48°19' W 005°06'8 8.9
2017-Nov-15 02:05N 48°20' W 004°54'1 8.8
2017-Nov-15 02:00N 48°20' W 004°53'4 8.5
2017-Nov-15 01:29N 48°21' W 004°47'0 0.0
2017-Nov-14 15:48N 48°22' W 004°47'3 7.9
2017-Nov-14 15:27N 48°21' W 004°51'3 7.1
2017-Nov-14 14:58N 48°20' W 004°56'4 8.9
2017-Nov-14 14:30N 48°20' W 005°02'5 9.1
2017-Nov-14 13:58N 48°19' W 005°10'8 0.8
2017-Nov-14 04:09N 48°17' W 005°21'  
Track history (hours):
 
Tides and Currents Weather Stations Pressure Air Temp Water Temp Dewpoint Dewpoint Depression Visibility Wind Speed Wind Dir Waves Ship Positions

Flipper III

Last reported at 2017-Nov-24 04:03 UTC. Time now 2017-Nov-24 09:37 UTC.
Position N 48°11' W 005°15'.

Length 23 m.

Type: Fishing. MMSI: 227320660.

Date/timePositionNaut miles runAvg speedWind from/ knotsBaromVisibWave heightAir tempDewpointWater temp
2017-Nov-24 04:03N 48°11' W 005°15'1 8.5
2017-Nov-24 03:59N 48°11' W 005°14'5 8.6
2017-Nov-24 03:27N 48°12' W 005°07'3 7.1
2017-Nov-24 03:00N 48°13' W 005°03'4 7.5
2017-Nov-24 02:27N 48°15' W 004°57'4 8.8
2017-Nov-24 01:58N 48°17' W 004°52'4 8.5
2017-Nov-24 01:28N 48°20' W 004°48'2 0.1
2017-Nov-23 08:57N 48°22' W 004°47'  
2017-Nov-17 16:17N 48°22' W 004°47'0 0.1
2017-Nov-17 15:45N 48°22' W 004°47'0 0.8
2017-Nov-17 15:25N 48°21' W 004°47'3 6.9
2017-Nov-17 14:58N 48°20' W 004°51'5 9.3
2017-Nov-17 14:29N 48°18' W 004°57'5 9.2
2017-Nov-17 13:58N 48°17' W 005°04'5 9.3
2017-Nov-17 13:29N 48°16' W 005°11'5 9.2
2017-Nov-17 12:53N 48°15' W 005°19'6 0.7
2017-Nov-17 03:29N 48°19' W 005°13'4 8.7
2017-Nov-17 03:00N 48°19' W 005°06'5 9.0
2017-Nov-17 02:27N 48°19' W 004°59'4 8.8
2017-Nov-17 02:00N 48°20' W 004°53'4 0.4
2017-Nov-16 15:32N 48°22' W 004°47'0 0.1
2017-Nov-16 15:04N 48°22' W 004°47'0 0.0
2017-Nov-16 14:40N 48°22' W 004°47'1 3.5
2017-Nov-16 14:24N 48°21' W 004°47'3 8.4
2017-Nov-16 14:00N 48°18' W 004°44'2 3.9
2017-Nov-16 13:28N 48°18' W 004°41'0 0.3
2017-Nov-16 12:59N 48°18' W 004°41'0 0.7
2017-Nov-16 12:30N 48°17' W 004°41'0 0.3
2017-Nov-16 11:58N 48°17' W 004°41'0 0.7
2017-Nov-16 11:30N 48°17' W 004°41'0 0.3
2017-Nov-16 11:00N 48°17' W 004°41'0 1.0
2017-Nov-16 10:30N 48°17' W 004°40'0 0.7
2017-Nov-16 09:58N 48°17' W 004°41'0 0.4
2017-Nov-16 09:30N 48°17' W 004°41'0 0.5
2017-Nov-16 08:59N 48°17' W 004°41'0 0.4
2017-Nov-16 08:30N 48°17' W 004°41'0 0.5
2017-Nov-16 08:00N 48°17' W 004°41'0 0.9
2017-Nov-16 07:30N 48°18' W 004°41'1 1.5
2017-Nov-16 06:58N 48°17' W 004°42'0 0.7
2017-Nov-16 06:30N 48°17' W 004°41'0 0.7
2017-Nov-16 06:00N 48°17' W 004°41'4 7.4
2017-Nov-16 05:30N 48°19' W 004°46'2 0.2
2017-Nov-15 14:44N 48°22' W 004°47'2 6.6
2017-Nov-15 14:26N 48°20' W 004°49'4 8.4
2017-Nov-15 13:58N 48°19' W 004°55'5 8.5
2017-Nov-15 13:25N 48°19' W 005°02'8 9.0
2017-Nov-15 12:33N 48°16' W 005°13'1 9.1
2017-Nov-15 12:29N 48°16' W 005°13'3 0.3
2017-Nov-15 03:43N 48°18' W 005°16'4 8.8
2017-Nov-15 03:19N 48°18' W 005°11'3 8.8
2017-Nov-15 02:59N 48°19' W 005°06'8 8.9
2017-Nov-15 02:05N 48°20' W 004°54'1 8.8
2017-Nov-15 02:00N 48°20' W 004°53'4 8.5
2017-Nov-15 01:29N 48°21' W 004°47'0 0.0
2017-Nov-14 15:48N 48°22' W 004°47'3 7.9
2017-Nov-14 15:27N 48°21' W 004°51'3 7.1
2017-Nov-14 14:58N 48°20' W 004°56'4 8.9
2017-Nov-14 14:30N 48°20' W 005°02'5 9.1
2017-Nov-14 13:58N 48°19' W 005°10'8 0.8
2017-Nov-14 04:09N 48°17' W 005°21'  

Dump ship's entire track history